createdAt,value
2023-05-06T00:00:22.592Z,12.24
2023-05-06T00:02:52.756Z,12.17
2023-05-06T00:05:22.776Z,12.14
2023-05-06T00:07:51.304Z,12.14
2023-05-06T00:10:22.354Z,12.17
2023-05-06T00:12:51.450Z,12.14
2023-05-06T00:15:19.754Z,12.13
2023-05-06T00:17:47.836Z,12.14
2023-05-06T00:20:16.201Z,12.13
2023-05-06T00:22:45.892Z,12.11
2023-05-06T00:25:14.085Z,12.17
2023-05-06T00:27:43.975Z,12.21
2023-05-06T00:30:13.344Z,12.27
2023-05-06T00:32:41.602Z,12.27
2023-05-06T00:35:10.861Z,12.25
2023-05-06T00:37:41.338Z,12.23
2023-05-06T00:40:13.943Z,12.21
2023-05-06T00:42:42.076Z,12.18
2023-05-06T00:45:11.492Z,12.14
2023-05-06T00:47:41.235Z,12.11
2023-05-06T00:50:11.949Z,12.02
2023-05-06T00:52:40.380Z,12.00
2023-05-06T00:55:09.620Z,11.94
2023-05-06T00:57:40.865Z,11.89
2023-05-06T01:00:11.486Z,11.87
2023-05-06T01:02:47.084Z,11.81
2023-05-06T01:05:17.362Z,11.83
2023-05-06T01:07:53.489Z,11.82
2023-05-06T01:10:28.517Z,11.82
2023-05-06T01:13:07.060Z,11.75
2023-05-06T01:15:39.661Z,11.68
2023-05-06T01:18:11.803Z,11.62
2023-05-06T01:20:44.368Z,11.58
2023-05-06T01:23:18.014Z,11.53
2023-05-06T01:25:46.831Z,11.45
2023-05-06T01:28:15.427Z,11.42
2023-05-06T01:31:02.424Z,11.44
2023-05-06T01:33:38.184Z,11.49
2023-05-06T01:36:16.917Z,11.67
2023-05-06T01:38:56.272Z,11.72
2023-05-06T01:41:26.781Z,11.65
2023-05-06T01:43:56.237Z,11.55
2023-05-06T01:46:26.003Z,11.46
2023-05-06T01:48:56.186Z,11.38
2023-05-06T01:51:24.681Z,11.33
2023-05-06T01:53:57.124Z,11.29
2023-05-06T01:56:27.027Z,11.23
2023-05-06T01:58:55.409Z,11.16
2023-05-06T02:01:23.951Z,11.07
2023-05-06T02:03:54.587Z,11.01
2023-05-06T02:06:23.547Z,10.93
2023-05-06T02:08:51.785Z,10.83
2023-05-06T02:11:24.541Z,10.75
2023-05-06T02:13:55.887Z,10.68
2023-05-06T02:16:24.365Z,10.64
2023-05-06T02:18:53.637Z,10.61
2023-05-06T02:21:21.813Z,10.59
2023-05-06T02:23:52.885Z,10.53
2023-05-06T02:26:21.024Z,10.51
2023-05-06T02:28:52.303Z,10.45
2023-05-06T02:31:20.918Z,10.41
2023-05-06T02:33:49.539Z,10.37
2023-05-06T02:36:17.887Z,10.33
2023-05-06T02:38:46.464Z,10.31
2023-05-06T02:41:14.789Z,10.28
2023-05-06T02:43:43.320Z,10.28
2023-05-06T02:46:14.122Z,10.28
2023-05-06T02:48:43.140Z,10.27
2023-05-06T02:51:13.688Z,10.27
2023-05-06T02:53:44.548Z,10.22
2023-05-06T02:56:12.607Z,10.20
2023-05-06T02:58:42.210Z,10.12
2023-05-06T03:01:12.403Z,10.04
2023-05-06T03:03:42.135Z,10.02
2023-05-06T03:06:10.223Z,10.01
2023-05-06T03:08:38.689Z,9.97
2023-05-06T03:11:09.220Z,10.17
2023-05-06T03:13:39.195Z,10.19
2023-05-06T03:16:13.102Z,10.24
2023-05-06T03:18:45.072Z,10.31
2023-05-06T03:21:14.293Z,10.28
2023-05-06T03:23:46.727Z,10.19
2023-05-06T03:26:15.401Z,10.19
2023-05-06T03:28:45.857Z,10.22
2023-05-06T03:31:23.181Z,10.21
2023-05-06T03:33:54.805Z,10.18
2023-05-06T03:36:25.360Z,10.15
2023-05-06T03:38:55.460Z,10.06
2023-05-06T03:41:25.556Z,10.12
2023-05-06T03:43:55.877Z,10.12
2023-05-06T03:46:27.747Z,10.08
2023-05-06T03:48:58.280Z,10.10
2023-05-06T03:51:29.195Z,10.11
2023-05-06T03:53:57.909Z,10.04
2023-05-06T03:56:27.868Z,10.06
2023-05-06T03:58:57.764Z,10.01
2023-05-06T04:01:29.746Z,9.96
2023-05-06T04:04:02.759Z,9.96
2023-05-06T04:06:32.745Z,9.98
2023-05-06T04:09:02.538Z,9.98
2023-05-06T04:11:31.242Z,9.97
2023-05-06T04:14:01.733Z,9.92
2023-05-06T04:16:30.754Z,9.89
2023-05-06T04:18:58.876Z,9.92
2023-05-06T04:21:31.314Z,9.89
2023-05-06T04:24:08.063Z,9.99
2023-05-06T04:26:42.997Z,10.04
2023-05-06T04:29:12.160Z,10.11
2023-05-06T04:31:48.308Z,10.14
2023-05-06T04:34:27.955Z,10.17
2023-05-06T04:36:59.873Z,10.21
2023-05-06T04:39:34.588Z,10.29
2023-05-06T04:42:03.745Z,10.31
2023-05-06T04:44:39.010Z,10.39
2023-05-06T04:47:10.660Z,10.47
2023-05-06T04:49:53.486Z,10.48
2023-05-06T04:52:25.052Z,10.54
2023-05-06T04:54:59.066Z,10.58
2023-05-06T04:57:31.711Z,10.69
2023-05-06T05:00:11.596Z,10.79
2023-05-06T05:02:42.610Z,10.88
2023-05-06T05:05:18.770Z,10.92
2023-05-06T05:07:55.169Z,10.93
2023-05-06T05:10:24.458Z,11.01
2023-05-06T05:12:57.335Z,11.05
2023-05-06T05:15:30.395Z,11.08
2023-05-06T05:17:58.716Z,11.13
2023-05-06T05:20:34.050Z,11.23
2023-05-06T05:23:06.847Z,11.37
2023-05-06T05:25:39.735Z,11.50
2023-05-06T05:28:09.692Z,11.56
2023-05-06T05:30:44.174Z,11.57
2023-05-06T05:33:12.769Z,11.62
2023-05-06T05:35:41.769Z,11.76
2023-05-06T05:38:12.896Z,11.88
2023-05-06T05:40:43.537Z,11.98
2023-05-06T05:43:12.325Z,12.13
2023-05-06T05:45:42.898Z,12.22
2023-05-06T05:48:12.508Z,12.39
2023-05-06T05:50:40.907Z,12.54
2023-05-06T05:53:11.750Z,12.69
2023-05-06T05:55:40.309Z,12.83
2023-05-06T05:58:08.501Z,12.97
2023-05-06T06:00:37.021Z,13.08
2023-05-06T06:03:12.265Z,13.26
2023-05-06T06:05:43.896Z,13.37
2023-05-06T06:08:14.600Z,13.51
2023-05-06T06:10:43.316Z,13.60
2023-05-06T06:13:18.640Z,13.69
2023-05-06T06:15:47.189Z,13.82
2023-05-06T06:18:16.424Z,14.02
2023-05-06T06:20:45.143Z,14.37
2023-05-06T06:23:16.361Z,14.57
2023-05-06T06:25:44.944Z,14.78
2023-05-06T06:28:13.458Z,15.09
2023-05-06T06:30:42.173Z,15.17
2023-05-06T06:33:11.710Z,15.42
2023-05-06T06:35:42.718Z,15.70
2023-05-06T06:38:10.754Z,15.77
2023-05-06T06:40:40.391Z,15.88
2023-05-06T06:43:08.425Z,15.90
2023-05-06T06:45:51.486Z,16.28
2023-05-06T06:48:20.741Z,16.26
2023-05-06T06:50:52.278Z,16.08
2023-05-06T06:53:21.563Z,16.17
2023-05-06T06:55:51.202Z,16.07
2023-05-06T06:58:19.710Z,16.24
2023-05-06T07:00:47.864Z,16.54
2023-05-06T07:03:19.383Z,16.76
2023-05-06T07:05:49.444Z,17.00
2023-05-06T07:08:18.279Z,17.18
2023-05-06T07:10:46.535Z,17.17
2023-05-06T07:13:16.746Z,17.37
2023-05-06T07:15:45.182Z,17.60
2023-05-06T07:18:15.070Z,17.69
2023-05-06T07:20:43.341Z,17.53
2023-05-06T07:23:12.026Z,16.90
2023-05-06T07:25:40.629Z,17.05
2023-05-06T07:28:09.271Z,17.04
2023-05-06T07:30:40.489Z,17.59
2023-05-06T07:33:08.879Z,17.70
2023-05-06T07:35:38.010Z,17.87
2023-05-06T07:38:06.126Z,17.92
2023-05-06T07:40:34.402Z,18.64
2023-05-06T07:43:04.512Z,18.83
2023-05-06T07:45:33.058Z,19.26
2023-05-06T07:48:03.102Z,19.23
2023-05-06T07:50:31.559Z,19.60
2023-05-06T07:53:00.112Z,19.20
2023-05-06T07:55:29.655Z,19.78
2023-05-06T07:57:57.857Z,20.15
2023-05-06T08:00:29.146Z,19.97
2023-05-06T08:02:59.739Z,19.94
2023-05-06T08:05:29.721Z,19.69
2023-05-06T08:07:59.432Z,20.12
2023-05-06T08:10:28.063Z,20.58
2023-05-06T08:12:56.585Z,20.34
2023-05-06T08:15:24.864Z,19.77
2023-05-06T08:17:53.904Z,20.27
2023-05-06T08:20:22.054Z,20.04
2023-05-06T08:22:53.469Z,20.50
2023-05-06T08:25:21.581Z,20.88
2023-05-06T08:27:49.803Z,20.11
2023-05-06T08:30:18.083Z,20.53
2023-05-06T08:32:46.732Z,20.33
2023-05-06T08:35:14.947Z,21.07
2023-05-06T08:37:43.157Z,21.53
2023-05-06T08:40:19.835Z,20.94
2023-05-06T08:42:49.363Z,21.51
2023-05-06T08:45:19.129Z,21.55
2023-05-06T08:47:48.171Z,21.94
2023-05-06T08:50:16.838Z,22.05
2023-05-06T08:52:45.914Z,22.26
2023-05-06T08:55:15.873Z,21.55
2023-05-06T08:57:46.420Z,22.14
2023-05-06T09:00:15.806Z,22.50
2023-05-06T09:02:44.124Z,22.61
2023-05-06T09:05:13.142Z,22.84
2023-05-06T09:07:41.786Z,23.40
2023-05-06T09:10:15.790Z,21.29
2023-05-06T09:12:45.670Z,21.71
2023-05-06T09:15:14.223Z,21.96
2023-05-06T09:17:42.504Z,22.20
2023-05-06T09:20:13.545Z,22.43
2023-05-06T09:22:42.758Z,22.32
2023-05-06T09:25:12.518Z,22.05
2023-05-06T09:27:42.408Z,22.78
2023-05-06T09:30:12.663Z,22.81
2023-05-06T09:32:41.138Z,22.79
2023-05-06T09:35:12.161Z,22.07
2023-05-06T09:37:40.637Z,23.17
2023-05-06T09:40:10.310Z,23.23
2023-05-06T09:42:40.053Z,23.55
2023-05-06T09:45:12.325Z,23.65
2023-05-06T09:47:41.085Z,23.46
2023-05-06T09:50:11.313Z,23.47
2023-05-06T09:52:41.315Z,23.39
2023-05-06T09:55:12.167Z,23.64
2023-05-06T09:57:41.304Z,23.79
2023-05-06T10:00:13.582Z,24.02
2023-05-06T10:02:44.781Z,24.85
2023-05-06T10:05:14.691Z,24.98
2023-05-06T10:07:43.133Z,23.79
2023-05-06T10:10:13.738Z,24.24
2023-05-06T10:12:43.016Z,24.08
2023-05-06T10:15:12.786Z,23.21
2023-05-06T10:17:43.054Z,23.01
2023-05-06T10:20:15.108Z,22.69
2023-05-06T10:22:58.115Z,23.28
2023-05-06T10:25:36.125Z,22.97
2023-05-06T10:28:07.873Z,23.00
2023-05-06T10:30:48.536Z,23.77
2023-05-06T10:33:17.597Z,24.65
2023-05-06T10:35:50.825Z,24.64
2023-05-06T10:38:25.978Z,24.03
2023-05-06T10:40:55.617Z,24.09
2023-05-06T10:43:26.012Z,23.78
2023-05-06T10:46:03.594Z,23.68
2023-05-06T10:48:32.449Z,24.68
2023-05-06T10:51:23.360Z,23.55
2023-05-06T10:54:00.230Z,23.70
2023-05-06T10:56:28.432Z,24.28
2023-05-06T10:58:57.546Z,24.69
2023-05-06T11:01:29.324Z,24.42
2023-05-06T11:03:58.637Z,25.15
2023-05-06T11:06:34.171Z,25.03
2023-05-06T11:09:05.706Z,25.39
2023-05-06T11:11:52.044Z,26.34
2023-05-06T11:14:28.901Z,25.88
2023-05-06T11:17:01.443Z,27.18
2023-05-06T11:19:31.191Z,27.28
2023-05-06T11:22:00.895Z,26.65
2023-05-06T11:24:30.502Z,26.83
2023-05-06T11:27:01.914Z,25.88
2023-05-06T11:29:30.484Z,27.14
2023-05-06T11:32:00.118Z,26.88
2023-05-06T11:34:29.980Z,25.98
2023-05-06T11:37:03.541Z,26.75
2023-05-06T11:39:36.626Z,26.38
2023-05-06T11:42:09.018Z,26.68
2023-05-06T11:44:39.368Z,26.49
2023-05-06T11:47:09.810Z,26.54
2023-05-06T11:49:39.460Z,26.16
2023-05-06T11:52:09.745Z,26.79
2023-05-06T11:54:40.099Z,26.43
2023-05-06T11:57:10.890Z,27.35
2023-05-06T11:59:40.747Z,27.26
2023-05-06T12:02:12.718Z,27.72
2023-05-06T12:04:42.159Z,27.91
2023-05-06T12:07:12.647Z,27.01
2023-05-06T12:09:43.259Z,25.27
2023-05-06T12:12:12.324Z,25.50
2023-05-06T12:14:41.585Z,26.01
2023-05-06T12:17:13.169Z,26.13
2023-05-06T12:19:41.407Z,25.46
2023-05-06T12:22:17.949Z,25.74
2023-05-06T12:24:46.756Z,26.31
2023-05-06T12:27:15.497Z,26.54
2023-05-06T12:29:53.249Z,27.00
2023-05-06T12:32:22.886Z,26.88
2023-05-06T12:34:51.204Z,26.64
2023-05-06T12:37:26.826Z,26.41
2023-05-06T12:39:58.477Z,26.29
2023-05-06T12:42:30.401Z,26.57
2023-05-06T12:45:14.646Z,25.53
2023-05-06T12:47:54.976Z,25.83
2023-05-06T12:50:34.037Z,26.02
2023-05-06T12:53:02.557Z,26.47
2023-05-06T12:55:31.553Z,25.73
2023-05-06T12:58:01.658Z,25.55
2023-05-06T13:00:29.931Z,25.00
2023-05-06T13:03:01.871Z,24.52
2023-05-06T13:05:35.856Z,23.85
2023-05-06T13:08:07.396Z,24.49
2023-05-06T13:10:47.886Z,24.90
2023-05-06T13:13:20.683Z,25.63
2023-05-06T13:16:00.602Z,26.00
2023-05-06T13:18:30.421Z,26.29
2023-05-06T13:21:04.367Z,25.57
2023-05-06T13:23:35.176Z,26.41
2023-05-06T13:26:06.254Z,27.06
2023-05-06T13:28:39.478Z,26.29
2023-05-06T13:31:22.946Z,25.99
2023-05-06T13:33:58.775Z,24.73
2023-05-06T13:36:33.479Z,26.27
2023-05-06T13:39:01.931Z,25.55
2023-05-06T13:41:36.256Z,25.82
2023-05-06T13:44:05.175Z,26.64
2023-05-06T13:46:35.999Z,26.71
2023-05-06T13:49:06.785Z,25.93
2023-05-06T13:51:35.606Z,26.13
2023-05-06T13:54:07.198Z,26.18
2023-05-06T13:56:41.836Z,26.06
2023-05-06T13:59:14.600Z,25.55
2023-05-06T14:01:48.664Z,25.10
2023-05-06T14:04:22.299Z,24.99
2023-05-06T14:06:57.749Z,25.60
2023-05-06T14:09:27.839Z,25.35
2023-05-06T14:11:56.022Z,25.44
2023-05-06T14:14:27.597Z,25.51
2023-05-06T14:17:02.587Z,25.23
2023-05-06T14:19:32.296Z,25.58
2023-05-06T14:22:00.461Z,25.58
2023-05-06T14:24:28.734Z,24.59
2023-05-06T14:26:57.427Z,25.35
2023-05-06T14:29:25.684Z,25.08
2023-05-06T14:31:54.297Z,25.21
2023-05-06T14:34:22.926Z,25.68
2023-05-06T14:36:52.492Z,25.69
2023-05-06T14:39:20.904Z,25.17
2023-05-06T14:41:49.039Z,25.45
2023-05-06T14:44:18.536Z,25.55
2023-05-06T14:46:46.919Z,25.74
2023-05-06T14:49:16.458Z,25.28
2023-05-06T14:51:45.068Z,24.46
2023-05-06T14:54:14.858Z,24.78
2023-05-06T14:56:45.778Z,24.37
2023-05-06T14:59:14.233Z,24.87
2023-05-06T15:01:42.982Z,24.88
2023-05-06T15:04:12.433Z,24.97
2023-05-06T15:06:41.634Z,25.28
2023-05-06T15:09:11.354Z,24.97
2023-05-06T15:11:40.969Z,24.55
2023-05-06T15:14:09.289Z,24.29
2023-05-06T15:16:37.395Z,24.82
2023-05-06T15:19:07.409Z,25.17
2023-05-06T15:21:36.084Z,25.57
2023-05-06T15:24:04.492Z,25.57
2023-05-06T15:26:33.021Z,25.50
2023-05-06T15:29:02.819Z,25.99
2023-05-06T15:31:33.509Z,25.41
2023-05-06T15:34:01.887Z,25.22
2023-05-06T15:36:34.325Z,24.57
2023-05-06T15:39:03.190Z,24.38
2023-05-06T15:41:33.292Z,24.74
2023-05-06T15:44:06.507Z,24.07
2023-05-06T15:46:34.893Z,24.13
2023-05-06T15:49:29.654Z,24.14
2023-05-06T15:51:52.280Z,24.28
2023-05-06T15:54:20.475Z,24.08
2023-05-06T15:56:49.776Z,23.99
2023-05-06T15:59:19.457Z,23.51
2023-05-06T16:04:19.013Z,23.68
2023-05-06T16:06:48.122Z,23.35
2023-05-06T16:09:16.921Z,23.51
2023-05-06T16:11:45.097Z,23.34
2023-05-06T16:14:14.490Z,23.05
2023-05-06T16:16:46.108Z,22.94
2023-05-06T16:19:16.034Z,22.79
2023-05-06T16:21:44.197Z,22.73
2023-05-06T16:24:12.452Z,22.58
2023-05-06T16:26:40.726Z,22.51
2023-05-06T16:29:08.855Z,22.39
2023-05-06T16:31:39.682Z,22.45
2023-05-06T16:34:10.121Z,22.72
2023-05-06T16:36:38.239Z,22.80
2023-05-06T16:39:07.009Z,22.66
2023-05-06T16:41:35.430Z,22.45
2023-05-06T16:44:03.559Z,22.46
2023-05-06T16:46:33.190Z,22.54
2023-05-06T16:49:03.908Z,22.43
2023-05-06T16:51:33.405Z,22.30
2023-05-06T16:54:01.387Z,22.17
2023-05-06T16:56:44.143Z,22.09
2023-05-06T16:59:21.626Z,21.99
2023-05-06T17:01:50.318Z,22.06
2023-05-06T17:04:18.643Z,21.94
2023-05-06T17:06:48.663Z,21.73
2023-05-06T17:09:17.737Z,21.56
2023-05-06T17:11:46.272Z,21.47
2023-05-06T17:14:15.230Z,21.64
2023-05-06T17:16:45.394Z,21.65
2023-05-06T17:19:14.697Z,21.78
2023-05-06T17:21:43.758Z,21.80
2023-05-06T17:24:14.808Z,21.73
2023-05-06T17:26:43.267Z,21.78
2023-05-06T17:29:11.650Z,21.69
2023-05-06T17:31:39.703Z,21.38
2023-05-06T17:34:08.072Z,21.35
2023-05-06T17:36:36.969Z,21.20
2023-05-06T17:39:06.451Z,21.32
2023-05-06T17:41:36.487Z,21.13
2023-05-06T17:46:37.486Z,20.92
2023-05-06T17:49:06.280Z,20.82
2023-05-06T17:51:34.400Z,20.74
2023-05-06T17:54:05.372Z,20.79
2023-05-06T17:56:33.826Z,20.54
2023-05-06T17:59:05.111Z,20.49
2023-05-06T18:01:33.441Z,20.45
2023-05-06T18:04:01.770Z,20.33
2023-05-06T18:06:32.879Z,20.24
2023-05-06T18:09:01.428Z,20.09
2023-05-06T18:11:32.009Z,19.95
2023-05-06T18:14:00.086Z,19.86
2023-05-06T18:16:30.240Z,19.82
2023-05-06T18:19:00.741Z,19.71
2023-05-06T18:21:28.994Z,19.62
2023-05-06T18:24:10.184Z,19.53
2023-05-06T18:26:46.100Z,19.40
2023-05-06T18:29:16.267Z,19.22
2023-05-06T18:31:46.702Z,19.18
2023-05-06T18:34:14.866Z,19.06
2023-05-06T18:36:43.024Z,18.86
2023-05-06T18:39:11.911Z,18.74
2023-05-06T18:41:40.282Z,18.63
2023-05-06T18:44:08.678Z,18.48
2023-05-06T18:46:37.488Z,18.40
2023-05-06T18:49:08.982Z,18.40
2023-05-06T18:51:37.356Z,18.39
2023-05-06T18:54:07.081Z,18.41
2023-05-06T18:56:35.638Z,18.37
2023-05-06T18:59:04.370Z,18.24
2023-05-06T19:01:34.878Z,18.13
2023-05-06T19:04:03.086Z,18.01
2023-05-06T19:06:32.973Z,17.89
2023-05-06T19:09:01.146Z,17.77
2023-05-06T19:11:29.384Z,17.67
2023-05-06T19:13:58.953Z,17.54
2023-05-06T19:16:27.626Z,17.44
2023-05-06T19:18:55.889Z,17.33
2023-05-06T19:21:24.683Z,17.20
2023-05-06T19:23:59.818Z,17.10
2023-05-06T19:26:28.715Z,16.99
2023-05-06T19:28:58.987Z,16.91
2023-05-06T19:31:33.744Z,16.82
2023-05-06T19:34:09.307Z,16.75
2023-05-06T19:36:38.669Z,16.65
2023-05-06T19:39:08.508Z,16.59
2023-05-06T19:41:40.066Z,16.53
2023-05-06T19:44:08.434Z,16.46
2023-05-06T19:46:38.809Z,16.45
2023-05-06T19:49:08.114Z,16.37
2023-05-06T19:51:37.029Z,16.41
2023-05-06T19:54:05.598Z,16.48
2023-05-06T19:56:36.892Z,16.44
2023-05-06T19:59:11.855Z,16.40
2023-05-06T20:01:41.953Z,16.30
2023-05-06T20:04:18.818Z,16.21
2023-05-06T20:06:52.584Z,16.17
2023-05-06T20:09:21.175Z,16.09
2023-05-06T20:11:55.536Z,15.98
2023-05-06T20:14:26.277Z,15.91
2023-05-06T20:16:54.285Z,15.87
2023-05-06T20:19:26.247Z,15.82
2023-05-06T20:21:58.579Z,15.79
2023-05-06T20:24:33.605Z,15.73
2023-05-06T20:27:03.135Z,15.72
2023-05-06T20:29:31.160Z,15.73
2023-05-06T20:31:59.747Z,15.67
2023-05-06T20:34:28.839Z,15.72
2023-05-06T20:36:58.211Z,15.69
2023-05-06T20:39:28.591Z,15.74
2023-05-06T20:41:58.478Z,15.73
2023-05-06T20:44:28.419Z,15.69
2023-05-06T20:46:56.679Z,15.68
2023-05-06T20:49:25.135Z,15.58
2023-05-06T20:51:53.464Z,15.52
2023-05-06T20:54:22.283Z,15.51
2023-05-06T20:56:52.361Z,15.47
2023-05-06T20:59:21.412Z,15.41
2023-05-06T21:01:51.212Z,15.39
2023-05-06T21:04:19.691Z,15.38
2023-05-06T21:06:48.233Z,15.33
2023-05-06T21:09:17.688Z,15.31
2023-05-06T21:11:46.186Z,15.29
2023-05-06T21:14:14.484Z,15.23
2023-05-06T21:16:42.875Z,15.20
2023-05-06T21:19:12.659Z,15.19
2023-05-06T21:21:42.054Z,15.15
2023-05-06T21:24:10.406Z,15.10
2023-05-06T21:26:41.085Z,15.05
2023-05-06T21:29:10.490Z,15.00
2023-05-06T21:31:38.951Z,14.91
2023-05-06T21:34:08.175Z,14.85
2023-05-06T21:36:37.794Z,14.78
2023-05-06T21:39:08.063Z,14.73
2023-05-06T21:41:37.234Z,14.63
2023-05-06T21:44:06.914Z,14.61
2023-05-06T21:46:36.954Z,14.55
2023-05-06T21:49:05.832Z,14.46
2023-05-06T21:51:35.901Z,14.40
2023-05-06T21:54:05.652Z,14.33
2023-05-06T21:56:33.655Z,14.28
2023-05-06T21:59:02.051Z,14.23
2023-05-06T22:01:30.644Z,14.20
2023-05-06T22:03:59.369Z,14.16
2023-05-06T22:06:28.251Z,14.14
2023-05-06T22:08:56.507Z,14.45
2023-05-06T22:11:26.205Z,14.46
2023-05-06T22:13:54.666Z,14.50
2023-05-06T22:16:22.890Z,14.49
2023-05-06T22:18:51.839Z,14.46
2023-05-06T22:21:20.679Z,14.39
2023-05-06T22:23:49.136Z,14.32
2023-05-06T22:26:17.602Z,14.27
2023-05-06T22:28:49.547Z,14.21
2023-05-06T22:31:18.131Z,14.13
2023-05-06T22:33:47.585Z,14.30
2023-05-06T22:36:15.797Z,14.33
2023-05-06T22:38:46.020Z,14.38
2023-05-06T22:41:15.276Z,14.41
2023-05-06T22:43:43.990Z,14.50
2023-05-06T22:46:13.693Z,14.52
2023-05-06T22:48:44.648Z,14.59
2023-05-06T22:51:13.389Z,14.65
2023-05-06T22:53:41.951Z,14.79
2023-05-06T22:56:10.451Z,14.83
2023-05-06T22:58:38.686Z,15.04
2023-05-06T23:01:08.516Z,15.00
2023-05-06T23:03:38.540Z,15.03
2023-05-06T23:06:09.723Z,14.93
2023-05-06T23:08:39.316Z,14.89
2023-05-06T23:11:09.381Z,14.86
2023-05-06T23:13:39.233Z,14.86
2023-05-06T23:16:11.367Z,14.86
2023-05-06T23:18:42.629Z,15.00
2023-05-06T23:21:12.744Z,15.06
2023-05-06T23:23:42.094Z,15.10
2023-05-06T23:26:12.486Z,15.04
2023-05-06T23:28:42.748Z,15.01
2023-05-06T23:31:11.373Z,14.94
2023-05-06T23:33:40.179Z,14.88
2023-05-06T23:36:12.494Z,14.78
2023-05-06T23:38:41.284Z,14.68
2023-05-06T23:41:14.051Z,14.51
2023-05-06T23:43:44.049Z,14.40
2023-05-06T23:46:13.277Z,14.36
2023-05-06T23:48:43.145Z,14.29
2023-05-06T23:51:16.242Z,14.16
2023-05-06T23:53:48.793Z,14.09
2023-05-06T23:56:18.920Z,14.11
2023-05-06T23:58:47.854Z,13.98
